sensor_id;sensor_type;location;lat;lon;timestamp;P1;durP1;ratioP1;P2;durP2;ratioP2
65691;SDS011;52411;52.716;6.696;2023-11-22T00:02:01;17.92;;;8.48;;
65691;SDS011;52411;52.716;6.696;2023-11-22T00:04:26;19.70;;;9.30;;
65691;SDS011;52411;52.716;6.696;2023-11-22T00:06:52;18.60;;;8.82;;
65691;SDS011;52411;52.716;6.696;2023-11-22T00:09:17;18.85;;;8.40;;
65691;SDS011;52411;52.716;6.696;2023-11-22T00:11:47;16.67;;;8.82;;
65691;SDS011;52411;52.716;6.696;2023-11-22T00:14:12;18.75;;;9.20;;
65691;SDS011;52411;52.716;6.696;2023-11-22T00:16:38;18.52;;;9.45;;
65691;SDS011;52411;52.716;6.696;2023-11-22T00:19:05;17.20;;;8.68;;
65691;SDS011;52411;52.716;6.696;2023-11-22T00:21:31;17.45;;;9.63;;
65691;SDS011;52411;52.716;6.696;2023-11-22T00:23:57;20.35;;;9.23;;
65691;SDS011;52411;52.716;6.696;2023-11-22T00:26:22;18.20;;;8.98;;
65691;SDS011;52411;52.716;6.696;2023-11-22T00:28:48;18.83;;;8.73;;
65691;SDS011;52411;52.716;6.696;2023-11-22T00:31:14;19.42;;;9.05;;
65691;SDS011;52411;52.716;6.696;2023-11-22T00:33:40;18.05;;;8.88;;
65691;SDS011;52411;52.716;6.696;2023-11-22T00:36:06;15.48;;;8.13;;
65691;SDS011;52411;52.716;6.696;2023-11-22T00:38:33;15.10;;;8.10;;
65691;SDS011;52411;52.716;6.696;2023-11-22T00:41:01;16.08;;;8.50;;
65691;SDS011;52411;52.716;6.696;2023-11-22T00:43:27;19.17;;;8.88;;
65691;SDS011;52411;52.716;6.696;2023-11-22T00:45:53;17.50;;;9.20;;
65691;SDS011;52411;52.716;6.696;2023-11-22T00:48:18;20.83;;;9.30;;
65691;SDS011;52411;52.716;6.696;2023-11-22T00:50:44;16.00;;;8.68;;
65691;SDS011;52411;52.716;6.696;2023-11-22T00:53:10;17.75;;;9.20;;
65691;SDS011;52411;52.716;6.696;2023-11-22T00:55:35;15.32;;;8.48;;
65691;SDS011;52411;52.716;6.696;2023-11-22T00:58:01;16.77;;;9.00;;
65691;SDS011;52411;52.716;6.696;2023-11-22T01:00:29;20.33;;;8.35;;
65691;SDS011;52411;52.716;6.696;2023-11-22T01:02:55;16.45;;;8.57;;
65691;SDS011;52411;52.716;6.696;2023-11-22T01:05:21;16.05;;;8.75;;
65691;SDS011;52411;52.716;6.696;2023-11-22T01:07:47;18.13;;;8.23;;
65691;SDS011;52411;52.716;6.696;2023-11-22T01:10:13;20.17;;;9.68;;
65691;SDS011;52411;52.716;6.696;2023-11-22T01:12:40;17.88;;;8.40;;
65691;SDS011;52411;52.716;6.696;2023-11-22T01:15:06;18.83;;;8.00;;
65691;SDS011;52411;52.716;6.696;2023-11-22T01:17:33;18.75;;;7.95;;
65691;SDS011;52411;52.716;6.696;2023-11-22T01:20:00;16.13;;;8.13;;
65691;SDS011;52411;52.716;6.696;2023-11-22T01:22:26;16.73;;;8.57;;
65691;SDS011;52411;52.716;6.696;2023-11-22T01:24:52;19.73;;;8.60;;
65691;SDS011;52411;52.716;6.696;2023-11-22T01:27:18;17.42;;;8.63;;
65691;SDS011;52411;52.716;6.696;2023-11-22T01:29:43;19.30;;;8.38;;
65691;SDS011;52411;52.716;6.696;2023-11-22T01:32:09;18.77;;;9.23;;
65691;SDS011;52411;52.716;6.696;2023-11-22T01:34:34;18.40;;;8.68;;
65691;SDS011;52411;52.716;6.696;2023-11-22T01:37:01;17.23;;;8.32;;
65691;SDS011;52411;52.716;6.696;2023-11-22T01:39:26;15.35;;;8.13;;
65691;SDS011;52411;52.716;6.696;2023-11-22T01:41:52;18.70;;;8.77;;
65691;SDS011;52411;52.716;6.696;2023-11-22T01:44:19;19.20;;;9.25;;
65691;SDS011;52411;52.716;6.696;2023-11-22T01:46:44;21.20;;;9.30;;
65691;SDS011;52411;52.716;6.696;2023-11-22T01:49:10;16.45;;;8.30;;
65691;SDS011;52411;52.716;6.696;2023-11-22T01:51:37;19.48;;;9.18;;
65691;SDS011;52411;52.716;6.696;2023-11-22T01:54:04;22.63;;;9.55;;
65691;SDS011;52411;52.716;6.696;2023-11-22T01:56:33;21.02;;;9.13;;
65691;SDS011;52411;52.716;6.696;2023-11-22T01:59:02;14.63;;;6.90;;
65691;SDS011;52411;52.716;6.696;2023-11-22T02:01:29;12.02;;;6.63;;
65691;SDS011;52411;52.716;6.696;2023-11-22T02:03:55;16.45;;;7.78;;
65691;SDS011;52411;52.716;6.696;2023-11-22T02:06:21;16.77;;;8.00;;
65691;SDS011;52411;52.716;6.696;2023-11-22T02:08:47;16.88;;;8.35;;
65691;SDS011;52411;52.716;6.696;2023-11-22T02:11:13;18.00;;;8.38;;
65691;SDS011;52411;52.716;6.696;2023-11-22T02:13:45;20.30;;;8.63;;
65691;SDS011;52411;52.716;6.696;2023-11-22T02:16:11;31.80;;;8.48;;
65691;SDS011;52411;52.716;6.696;2023-11-22T02:18:37;21.25;;;8.07;;
65691;SDS011;52411;52.716;6.696;2023-11-22T02:21:02;19.05;;;8.27;;
65691;SDS011;52411;52.716;6.696;2023-11-22T02:23:28;16.70;;;8.50;;
65691;SDS011;52411;52.716;6.696;2023-11-22T02:25:53;19.60;;;9.23;;
65691;SDS011;52411;52.716;6.696;2023-11-22T02:28:19;19.40;;;9.27;;
65691;SDS011;52411;52.716;6.696;2023-11-22T02:30:45;16.17;;;8.30;;
65691;SDS011;52411;52.716;6.696;2023-11-22T02:33:10;19.20;;;8.55;;
65691;SDS011;52411;52.716;6.696;2023-11-22T02:35:36;22.80;;;9.70;;
65691;SDS011;52411;52.716;6.696;2023-11-22T02:38:02;20.08;;;9.48;;
65691;SDS011;52411;52.716;6.696;2023-11-22T02:40:27;28.60;;;8.00;;
65691;SDS011;52411;52.716;6.696;2023-11-22T02:42:54;31.45;;;9.15;;
65691;SDS011;52411;52.716;6.696;2023-11-22T02:45:26;19.58;;;9.23;;
65691;SDS011;52411;52.716;6.696;2023-11-22T02:47:53;79.10;;;10.15;;
65691;SDS011;52411;52.716;6.696;2023-11-22T02:50:19;19.70;;;8.77;;
65691;SDS011;52411;52.716;6.696;2023-11-22T02:52:45;20.13;;;8.95;;
65691;SDS011;52411;52.716;6.696;2023-11-22T02:55:10;22.92;;;9.40;;
65691;SDS011;52411;52.716;6.696;2023-11-22T02:57:36;23.05;;;10.23;;
65691;SDS011;52411;52.716;6.696;2023-11-22T03:00:06;26.08;;;8.60;;
65691;SDS011;52411;52.716;6.696;2023-11-22T03:02:38;31.90;;;8.35;;
65691;SDS011;52411;52.716;6.696;2023-11-22T03:05:06;14.25;;;7.18;;
65691;SDS011;52411;52.716;6.696;2023-11-22T03:07:33;18.52;;;8.20;;
65691;SDS011;52411;52.716;6.696;2023-11-22T03:09:59;20.25;;;8.27;;
65691;SDS011;52411;52.716;6.696;2023-11-22T03:12:26;16.75;;;7.90;;
65691;SDS011;52411;52.716;6.696;2023-11-22T03:14:51;22.15;;;8.35;;
65691;SDS011;52411;52.716;6.696;2023-11-22T03:17:19;196.77;;;12.60;;
65691;SDS011;52411;52.716;6.696;2023-11-22T03:19:44;114.72;;;10.55;;
65691;SDS011;52411;52.716;6.696;2023-11-22T03:22:11;77.05;;;10.23;;
65691;SDS011;52411;52.716;6.696;2023-11-22T03:24:37;78.07;;;11.48;;
65691;SDS011;52411;52.716;6.696;2023-11-22T03:27:03;23.10;;;8.93;;
65691;SDS011;52411;52.716;6.696;2023-11-22T03:29:29;18.63;;;8.85;;
65691;SDS011;52411;52.716;6.696;2023-11-22T03:31:55;18.17;;;8.32;;
65691;SDS011;52411;52.716;6.696;2023-11-22T03:34:20;19.13;;;8.63;;
65691;SDS011;52411;52.716;6.696;2023-11-22T03:36:46;15.70;;;7.82;;
65691;SDS011;52411;52.716;6.696;2023-11-22T03:39:12;34.65;;;8.30;;
65691;SDS011;52411;52.716;6.696;2023-11-22T03:41:39;23.05;;;9.20;;
65691;SDS011;52411;52.716;6.696;2023-11-22T03:44:05;25.75;;;9.30;;
65691;SDS011;52411;52.716;6.696;2023-11-22T03:46:34;18.02;;;8.35;;
65691;SDS011;52411;52.716;6.696;2023-11-22T03:49:06;17.70;;;8.23;;
65691;SDS011;52411;52.716;6.696;2023-11-22T03:51:33;14.63;;;7.30;;
65691;SDS011;52411;52.716;6.696;2023-11-22T03:53:59;18.20;;;7.85;;
65691;SDS011;52411;52.716;6.696;2023-11-22T03:56:24;19.15;;;8.15;;
65691;SDS011;52411;52.716;6.696;2023-11-22T03:58:51;21.27;;;7.90;;
65691;SDS011;52411;52.716;6.696;2023-11-22T04:01:16;21.42;;;8.82;;
65691;SDS011;52411;52.716;6.696;2023-11-22T04:03:43;16.92;;;8.00;;
65691;SDS011;52411;52.716;6.696;2023-11-22T04:06:09;20.48;;;7.75;;
65691;SDS011;52411;52.716;6.696;2023-11-22T04:08:34;19.00;;;8.40;;
65691;SDS011;52411;52.716;6.696;2023-11-22T04:11:00;21.35;;;8.98;;
65691;SDS011;52411;52.716;6.696;2023-11-22T04:13:27;21.77;;;9.07;;
65691;SDS011;52411;52.716;6.696;2023-11-22T04:15:52;19.35;;;8.88;;
65691;SDS011;52411;52.716;6.696;2023-11-22T04:18:18;19.23;;;8.07;;
65691;SDS011;52411;52.716;6.696;2023-11-22T04:20:43;18.77;;;8.55;;
65691;SDS011;52411;52.716;6.696;2023-11-22T04:23:09;18.00;;;8.30;;
65691;SDS011;52411;52.716;6.696;2023-11-22T04:25:36;20.63;;;9.13;;
65691;SDS011;52411;52.716;6.696;2023-11-22T04:28:02;22.90;;;9.30;;
65691;SDS011;52411;52.716;6.696;2023-11-22T04:30:28;20.92;;;8.98;;
65691;SDS011;52411;52.716;6.696;2023-11-22T04:32:54;23.73;;;9.77;;
65691;SDS011;52411;52.716;6.696;2023-11-22T04:35:19;21.20;;;10.10;;
65691;SDS011;52411;52.716;6.696;2023-11-22T04:37:45;29.02;;;11.43;;
65691;SDS011;52411;52.716;6.696;2023-11-22T04:40:11;23.92;;;10.95;;
65691;SDS011;52411;52.716;6.696;2023-11-22T04:42:39;22.73;;;9.95;;
65691;SDS011;52411;52.716;6.696;2023-11-22T04:45:05;23.25;;;9.52;;
65691;SDS011;52411;52.716;6.696;2023-11-22T04:47:31;20.45;;;8.95;;
65691;SDS011;52411;52.716;6.696;2023-11-22T04:49:57;21.83;;;9.20;;
65691;SDS011;52411;52.716;6.696;2023-11-22T04:52:22;22.10;;;8.50;;
65691;SDS011;52411;52.716;6.696;2023-11-22T04:54:48;19.08;;;8.38;;
65691;SDS011;52411;52.716;6.696;2023-11-22T04:57:14;19.88;;;8.88;;
65691;SDS011;52411;52.716;6.696;2023-11-22T04:59:40;25.27;;;8.82;;
65691;SDS011;52411;52.716;6.696;2023-11-22T05:02:06;22.33;;;10.20;;
65691;SDS011;52411;52.716;6.696;2023-11-22T05:04:32;18.95;;;8.88;;
65691;SDS011;52411;52.716;6.696;2023-11-22T05:06:57;48.70;;;8.70;;
65691;SDS011;52411;52.716;6.696;2023-11-22T05:09:23;136.05;;;13.20;;
65691;SDS011;52411;52.716;6.696;2023-11-22T05:11:49;232.05;;;18.35;;
65691;SDS011;52411;52.716;6.696;2023-11-22T05:14:15;202.98;;;13.90;;
65691;SDS011;52411;52.716;6.696;2023-11-22T05:16:40;45.03;;;9.80;;
65691;SDS011;52411;52.716;6.696;2023-11-22T05:19:06;131.48;;;12.55;;
65691;SDS011;52411;52.716;6.696;2023-11-22T05:21:32;196.65;;;14.23;;
65691;SDS011;52411;52.716;6.696;2023-11-22T05:23:58;138.32;;;11.80;;
65691;SDS011;52411;52.716;6.696;2023-11-22T05:26:24;108.22;;;10.35;;
65691;SDS011;52411;52.716;6.696;2023-11-22T05:28:49;177.95;;;10.43;;
65691;SDS011;52411;52.716;6.696;2023-11-22T05:31:15;109.13;;;9.13;;
65691;SDS011;52411;52.716;6.696;2023-11-22T05:33:41;213.43;;;13.73;;
65691;SDS011;52411;52.716;6.696;2023-11-22T05:36:07;146.82;;;11.32;;
65691;SDS011;52411;52.716;6.696;2023-11-22T05:38:33;99.95;;;8.52;;
65691;SDS011;52411;52.716;6.696;2023-11-22T05:40:59;179.32;;;10.77;;
65691;SDS011;52411;52.716;6.696;2023-11-22T05:43:25;168.95;;;11.77;;
65691;SDS011;52411;52.716;6.696;2023-11-22T05:45:55;87.97;;;7.82;;
65691;SDS011;52411;52.716;6.696;2023-11-22T05:48:20;145.10;;;8.20;;
65691;SDS011;52411;52.716;6.696;2023-11-22T05:50:46;99.40;;;8.50;;
65691;SDS011;52411;52.716;6.696;2023-11-22T05:53:13;125.07;;;10.68;;
65691;SDS011;52411;52.716;6.696;2023-11-22T05:55:44;163.55;;;10.88;;
65691;SDS011;52411;52.716;6.696;2023-11-22T05:58:12;128.43;;;8.70;;
65691;SDS011;52411;52.716;6.696;2023-11-22T06:00:41;50.38;;;6.28;;
65691;SDS011;52411;52.716;6.696;2023-11-22T06:03:07;100.22;;;9.80;;
65691;SDS011;52411;52.716;6.696;2023-11-22T06:05:33;108.22;;;9.60;;
65691;SDS011;52411;52.716;6.696;2023-11-22T06:07:59;212.38;;;15.32;;
65691;SDS011;52411;52.716;6.696;2023-11-22T06:10:24;175.25;;;11.18;;
65691;SDS011;52411;52.716;6.696;2023-11-22T06:12:50;139.85;;;9.57;;
65691;SDS011;52411;52.716;6.696;2023-11-22T06:15:15;42.42;;;6.43;;
65691;SDS011;52411;52.716;6.696;2023-11-22T06:17:41;119.30;;;9.00;;
65691;SDS011;52411;52.716;6.696;2023-11-22T06:20:06;109.80;;;9.88;;
65691;SDS011;52411;52.716;6.696;2023-11-22T06:22:32;109.32;;;8.77;;
65691;SDS011;52411;52.716;6.696;2023-11-22T06:24:58;105.47;;;8.77;;
65691;SDS011;52411;52.716;6.696;2023-11-22T06:27:24;111.43;;;10.02;;
65691;SDS011;52411;52.716;6.696;2023-11-22T06:29:49;46.53;;;8.05;;
65691;SDS011;52411;52.716;6.696;2023-11-22T06:32:15;69.53;;;8.07;;
65691;SDS011;52411;52.716;6.696;2023-11-22T06:34:40;101.72;;;10.55;;
65691;SDS011;52411;52.716;6.696;2023-11-22T06:37:07;91.65;;;8.93;;
65691;SDS011;52411;52.716;6.696;2023-11-22T06:39:33;33.97;;;7.00;;
65691;SDS011;52411;52.716;6.696;2023-11-22T06:42:00;80.25;;;8.50;;
65691;SDS011;52411;52.716;6.696;2023-11-22T06:44:25;34.65;;;7.60;;
65691;SDS011;52411;52.716;6.696;2023-11-22T06:46:52;33.28;;;6.90;;
65691;SDS011;52411;52.716;6.696;2023-11-22T06:49:18;30.05;;;6.50;;
65691;SDS011;52411;52.716;6.696;2023-11-22T06:51:44;11.15;;;6.47;;
65691;SDS011;52411;52.716;6.696;2023-11-22T06:54:10;61.38;;;7.28;;
65691;SDS011;52411;52.716;6.696;2023-11-22T06:56:35;27.40;;;6.97;;
65691;SDS011;52411;52.716;6.696;2023-11-22T06:59:01;36.80;;;6.57;;
65691;SDS011;52411;52.716;6.696;2023-11-22T07:01:26;20.85;;;5.90;;
65691;SDS011;52411;52.716;6.696;2023-11-22T07:03:52;15.55;;;6.35;;
65691;SDS011;52411;52.716;6.696;2023-11-22T07:06:18;23.25;;;6.18;;
65691;SDS011;52411;52.716;6.696;2023-11-22T07:08:44;16.48;;;6.43;;
65691;SDS011;52411;52.716;6.696;2023-11-22T07:11:10;22.52;;;7.35;;
65691;SDS011;52411;52.716;6.696;2023-11-22T07:13:36;15.77;;;6.35;;
65691;SDS011;52411;52.716;6.696;2023-11-22T07:16:03;13.02;;;6.95;;
65691;SDS011;52411;52.716;6.696;2023-11-22T07:18:29;16.13;;;7.53;;
65691;SDS011;52411;52.716;6.696;2023-11-22T07:20:58;16.30;;;7.47;;
65691;SDS011;52411;52.716;6.696;2023-11-22T07:23:24;14.73;;;6.90;;
65691;SDS011;52411;52.716;6.696;2023-11-22T07:25:54;27.42;;;6.97;;
65691;SDS011;52411;52.716;6.696;2023-11-22T07:28:19;14.80;;;7.38;;
65691;SDS011;52411;52.716;6.696;2023-11-22T07:30:45;16.15;;;6.93;;
65691;SDS011;52411;52.716;6.696;2023-11-22T07:33:13;17.55;;;7.85;;
65691;SDS011;52411;52.716;6.696;2023-11-22T07:35:40;12.70;;;5.93;;
65691;SDS011;52411;52.716;6.696;2023-11-22T07:38:06;11.57;;;5.35;;
65691;SDS011;52411;52.716;6.696;2023-11-22T07:40:33;11.13;;;5.53;;
65691;SDS011;52411;52.716;6.696;2023-11-22T07:43:00;13.60;;;6.10;;
65691;SDS011;52411;52.716;6.696;2023-11-22T07:45:27;13.27;;;5.55;;
65691;SDS011;52411;52.716;6.696;2023-11-22T07:47:53;19.85;;;5.72;;
65691;SDS011;52411;52.716;6.696;2023-11-22T07:50:21;19.92;;;6.43;;
65691;SDS011;52411;52.716;6.696;2023-11-22T07:52:49;60.55;;;7.95;;
65691;SDS011;52411;52.716;6.696;2023-11-22T07:55:15;36.53;;;7.50;;
65691;SDS011;52411;52.716;6.696;2023-11-22T07:57:43;18.67;;;7.70;;
65691;SDS011;52411;52.716;6.696;2023-11-22T08:00:09;17.95;;;8.10;;
65691;SDS011;52411;52.716;6.696;2023-11-22T08:02:36;29.27;;;8.45;;
65691;SDS011;52411;52.716;6.696;2023-11-22T08:05:04;16.75;;;7.63;;
65691;SDS011;52411;52.716;6.696;2023-11-22T08:07:33;16.08;;;7.00;;
65691;SDS011;52411;52.716;6.696;2023-11-22T08:10:06;16.70;;;6.82;;
65691;SDS011;52411;52.716;6.696;2023-11-22T08:12:46;13.50;;;6.47;;
65691;SDS011;52411;52.716;6.696;2023-11-22T08:15:15;14.32;;;6.85;;
65691;SDS011;52411;52.716;6.696;2023-11-22T08:17:41;14.57;;;6.38;;
65691;SDS011;52411;52.716;6.696;2023-11-22T08:20:08;17.85;;;7.28;;
65691;SDS011;52411;52.716;6.696;2023-11-22T08:22:38;15.25;;;7.03;;
65691;SDS011;52411;52.716;6.696;2023-11-22T08:25:06;18.58;;;7.65;;
65691;SDS011;52411;52.716;6.696;2023-11-22T08:27:33;18.35;;;8.75;;
65691;SDS011;52411;52.716;6.696;2023-11-22T08:29:59;24.88;;;11.18;;
65691;SDS011;52411;52.716;6.696;2023-11-22T08:32:30;21.25;;;10.40;;
65691;SDS011;52411;52.716;6.696;2023-11-22T08:34:56;24.48;;;10.90;;
65691;SDS011;52411;52.716;6.696;2023-11-22T08:37:22;21.83;;;10.95;;
65691;SDS011;52411;52.716;6.696;2023-11-22T08:39:48;22.88;;;10.18;;
65691;SDS011;52411;52.716;6.696;2023-11-22T08:42:15;19.70;;;9.30;;
65691;SDS011;52411;52.716;6.696;2023-11-22T08:44:41;17.90;;;9.18;;
65691;SDS011;52411;52.716;6.696;2023-11-22T08:47:06;23.67;;;10.93;;
65691;SDS011;52411;52.716;6.696;2023-11-22T08:49:33;18.75;;;9.60;;
65691;SDS011;52411;52.716;6.696;2023-11-22T08:51:59;25.63;;;10.20;;
65691;SDS011;52411;52.716;6.696;2023-11-22T08:54:26;24.42;;;10.88;;
65691;SDS011;52411;52.716;6.696;2023-11-22T08:56:55;26.25;;;11.48;;
65691;SDS011;52411;52.716;6.696;2023-11-22T08:59:21;25.00;;;10.85;;
65691;SDS011;52411;52.716;6.696;2023-11-22T09:01:47;26.25;;;11.70;;
65691;SDS011;52411;52.716;6.696;2023-11-22T09:04:12;28.65;;;11.52;;
65691;SDS011;52411;52.716;6.696;2023-11-22T09:06:38;23.05;;;11.57;;
65691;SDS011;52411;52.716;6.696;2023-11-22T09:09:04;28.17;;;12.60;;
65691;SDS011;52411;52.716;6.696;2023-11-22T09:11:30;30.45;;;13.13;;
65691;SDS011;52411;52.716;6.696;2023-11-22T09:13:56;30.08;;;13.07;;
65691;SDS011;52411;52.716;6.696;2023-11-22T09:16:23;32.47;;;14.07;;
65691;SDS011;52411;52.716;6.696;2023-11-22T09:18:52;32.45;;;13.80;;
65691;SDS011;52411;52.716;6.696;2023-11-22T09:21:19;31.60;;;14.50;;
65691;SDS011;52411;52.716;6.696;2023-11-22T09:23:46;28.65;;;12.85;;
65691;SDS011;52411;52.716;6.696;2023-11-22T09:26:13;31.45;;;14.00;;
65691;SDS011;52411;52.716;6.696;2023-11-22T09:28:39;30.35;;;13.63;;
65691;SDS011;52411;52.716;6.696;2023-11-22T09:31:08;31.88;;;14.27;;
65691;SDS011;52411;52.716;6.696;2023-11-22T09:33:33;28.48;;;13.70;;
65691;SDS011;52411;52.716;6.696;2023-11-22T09:35:59;31.15;;;14.27;;
65691;SDS011;52411;52.716;6.696;2023-11-22T09:38:25;33.30;;;14.73;;
65691;SDS011;52411;52.716;6.696;2023-11-22T09:40:50;31.38;;;14.43;;
65691;SDS011;52411;52.716;6.696;2023-11-22T09:43:17;35.15;;;15.10;;
65691;SDS011;52411;52.716;6.696;2023-11-22T09:45:45;31.88;;;14.95;;
65691;SDS011;52411;52.716;6.696;2023-11-22T09:48:18;34.67;;;16.52;;
65691;SDS011;52411;52.716;6.696;2023-11-22T09:50:49;36.72;;;14.65;;
65691;SDS011;52411;52.716;6.696;2023-11-22T09:53:36;34.63;;;14.85;;
65691;SDS011;52411;52.716;6.696;2023-11-22T09:56:19;38.22;;;14.80;;
65691;SDS011;52411;52.716;6.696;2023-11-22T09:58:45;34.17;;;14.55;;
65691;SDS011;52411;52.716;6.696;2023-11-22T10:01:13;34.75;;;15.15;;
65691;SDS011;52411;52.716;6.696;2023-11-22T10:03:40;32.53;;;15.25;;
65691;SDS011;52411;52.716;6.696;2023-11-22T10:06:06;33.00;;;14.40;;
65691;SDS011;52411;52.716;6.696;2023-11-22T10:08:32;33.28;;;14.60;;
65691;SDS011;52411;52.716;6.696;2023-11-22T10:10:58;31.20;;;15.40;;
65691;SDS011;52411;52.716;6.696;2023-11-22T10:13:24;31.70;;;14.63;;
65691;SDS011;52411;52.716;6.696;2023-11-22T10:15:51;29.98;;;13.35;;
65691;SDS011;52411;52.716;6.696;2023-11-22T10:18:18;33.92;;;15.02;;
65691;SDS011;52411;52.716;6.696;2023-11-22T10:20:46;32.33;;;13.60;;
65691;SDS011;52411;52.716;6.696;2023-11-22T10:23:15;31.67;;;12.88;;
65691;SDS011;52411;52.716;6.696;2023-11-22T10:25:46;29.25;;;13.80;;
65691;SDS011;52411;52.716;6.696;2023-11-22T10:28:25;28.23;;;14.13;;
65691;SDS011;52411;52.716;6.696;2023-11-22T10:30:52;29.15;;;13.90;;
65691;SDS011;52411;52.716;6.696;2023-11-22T10:33:18;27.67;;;13.10;;
65691;SDS011;52411;52.716;6.696;2023-11-22T10:35:48;25.58;;;12.65;;
65691;SDS011;52411;52.716;6.696;2023-11-22T10:38:18;25.77;;;12.60;;
65691;SDS011;52411;52.716;6.696;2023-11-22T10:40:45;26.95;;;12.65;;
65691;SDS011;52411;52.716;6.696;2023-11-22T10:43:12;23.58;;;12.10;;
65691;SDS011;52411;52.716;6.696;2023-11-22T10:45:42;27.35;;;11.55;;
65691;SDS011;52411;52.716;6.696;2023-11-22T10:48:16;24.70;;;11.45;;
65691;SDS011;52411;52.716;6.696;2023-11-22T10:50:43;26.75;;;11.88;;
65691;SDS011;52411;52.716;6.696;2023-11-22T10:53:11;24.15;;;12.07;;
65691;SDS011;52411;52.716;6.696;2023-11-22T10:55:40;24.15;;;11.73;;
65691;SDS011;52411;52.716;6.696;2023-11-22T10:58:09;20.70;;;10.52;;
65691;SDS011;52411;52.716;6.696;2023-11-22T11:00:36;24.60;;;11.38;;
65691;SDS011;52411;52.716;6.696;2023-11-22T11:03:17;22.02;;;11.10;;
65691;SDS011;52411;52.716;6.696;2023-11-22T11:05:47;24.45;;;11.52;;
65691;SDS011;52411;52.716;6.696;2023-11-22T11:08:22;38.30;;;10.85;;
65691;SDS011;52411;52.716;6.696;2023-11-22T11:10:52;21.83;;;9.95;;
65691;SDS011;52411;52.716;6.696;2023-11-22T11:13:21;18.00;;;9.82;;
65691;SDS011;52411;52.716;6.696;2023-11-22T11:15:47;20.23;;;9.93;;
65691;SDS011;52411;52.716;6.696;2023-11-22T11:18:14;21.95;;;9.80;;
65691;SDS011;52411;52.716;6.696;2023-11-22T11:20:45;17.45;;;8.80;;
65691;SDS011;52411;52.716;6.696;2023-11-22T11:23:25;17.02;;;8.55;;
65691;SDS011;52411;52.716;6.696;2023-11-22T11:25:55;18.95;;;9.27;;
65691;SDS011;52411;52.716;6.696;2023-11-22T11:28:23;14.73;;;8.30;;
65691;SDS011;52411;52.716;6.696;2023-11-22T11:30:55;14.23;;;8.20;;
65691;SDS011;52411;52.716;6.696;2023-11-22T11:33:27;15.10;;;8.15;;
65691;SDS011;52411;52.716;6.696;2023-11-22T11:36:00;15.25;;;8.32;;
65691;SDS011;52411;52.716;6.696;2023-11-22T11:38:32;14.07;;;7.35;;
65691;SDS011;52411;52.716;6.696;2023-11-22T11:41:08;16.77;;;7.95;;
65691;SDS011;52411;52.716;6.696;2023-11-22T11:43:45;12.43;;;7.70;;
65691;SDS011;52411;52.716;6.696;2023-11-22T11:46:11;15.15;;;8.43;;
65691;SDS011;52411;52.716;6.696;2023-11-22T11:48:44;15.77;;;8.32;;
65691;SDS011;52411;52.716;6.696;2023-11-22T11:51:16;15.80;;;8.20;;
65691;SDS011;52411;52.716;6.696;2023-11-22T11:53:50;13.18;;;7.43;;
65691;SDS011;52411;52.716;6.696;2023-11-22T11:56:17;16.67;;;8.02;;
65691;SDS011;52411;52.716;6.696;2023-11-22T11:58:46;16.95;;;8.85;;
65691;SDS011;52411;52.716;6.696;2023-11-22T12:01:14;15.68;;;8.93;;
65691;SDS011;52411;52.716;6.696;2023-11-22T12:03:46;15.73;;;8.88;;
65691;SDS011;52411;52.716;6.696;2023-11-22T12:06:18;17.58;;;9.18;;
65691;SDS011;52411;52.716;6.696;2023-11-22T12:08:44;16.45;;;9.50;;
65691;SDS011;52411;52.716;6.696;2023-11-22T12:11:11;14.15;;;7.63;;
65691;SDS011;52411;52.716;6.696;2023-11-22T12:13:37;14.18;;;7.35;;
65691;SDS011;52411;52.716;6.696;2023-11-22T12:16:06;14.15;;;8.75;;
65691;SDS011;52411;52.716;6.696;2023-11-22T12:18:54;15.65;;;9.35;;
65691;SDS011;52411;52.716;6.696;2023-11-22T12:21:19;16.45;;;8.27;;
65691;SDS011;52411;52.716;6.696;2023-11-22T12:23:46;16.35;;;8.45;;
65691;SDS011;52411;52.716;6.696;2023-11-22T12:26:14;12.75;;;7.05;;
65691;SDS011;52411;52.716;6.696;2023-11-22T12:28:41;11.73;;;7.35;;
65691;SDS011;52411;52.716;6.696;2023-11-22T12:31:10;13.02;;;7.05;;
65691;SDS011;52411;52.716;6.696;2023-11-22T12:33:37;12.18;;;6.30;;
65691;SDS011;52411;52.716;6.696;2023-11-22T12:36:05;9.57;;;6.32;;
65691;SDS011;52411;52.716;6.696;2023-11-22T12:38:32;10.02;;;5.20;;
65691;SDS011;52411;52.716;6.696;2023-11-22T12:40:59;8.90;;;5.97;;
65691;SDS011;52411;52.716;6.696;2023-11-22T12:43:26;11.07;;;6.55;;
65691;SDS011;52411;52.716;6.696;2023-11-22T12:46:02;9.77;;;6.15;;
65691;SDS011;52411;52.716;6.696;2023-11-22T12:48:31;11.20;;;6.88;;
65691;SDS011;52411;52.716;6.696;2023-11-22T12:50:58;10.70;;;6.72;;
65691;SDS011;52411;52.716;6.696;2023-11-22T12:53:24;11.15;;;6.57;;
65691;SDS011;52411;52.716;6.696;2023-11-22T12:55:52;10.40;;;6.20;;
65691;SDS011;52411;52.716;6.696;2023-11-22T12:58:23;12.18;;;6.13;;
65691;SDS011;52411;52.716;6.696;2023-11-22T13:00:50;8.50;;;5.32;;
65691;SDS011;52411;52.716;6.696;2023-11-22T13:03:23;9.05;;;5.90;;
65691;SDS011;52411;52.716;6.696;2023-11-22T13:05:49;11.00;;;6.32;;
65691;SDS011;52411;52.716;6.696;2023-11-22T13:08:17;9.10;;;5.70;;
65691;SDS011;52411;52.716;6.696;2023-11-22T13:10:43;9.95;;;5.45;;
65691;SDS011;52411;52.716;6.696;2023-11-22T13:13:12;10.18;;;6.00;;
65691;SDS011;52411;52.716;6.696;2023-11-22T13:15:38;11.20;;;5.45;;
65691;SDS011;52411;52.716;6.696;2023-11-22T13:18:05;11.20;;;6.50;;
65691;SDS011;52411;52.716;6.696;2023-11-22T13:20:31;11.38;;;5.93;;
65691;SDS011;52411;52.716;6.696;2023-11-22T13:22:57;9.77;;;5.53;;
65691;SDS011;52411;52.716;6.696;2023-11-22T13:25:25;9.38;;;5.50;;
65691;SDS011;52411;52.716;6.696;2023-11-22T13:27:50;10.13;;;6.03;;
65691;SDS011;52411;52.716;6.696;2023-11-22T13:30:18;13.95;;;6.20;;
65691;SDS011;52411;52.716;6.696;2023-11-22T13:32:47;9.75;;;5.88;;
65691;SDS011;52411;52.716;6.696;2023-11-22T13:35:22;10.27;;;6.38;;
65691;SDS011;52411;52.716;6.696;2023-11-22T13:37:55;9.30;;;5.50;;
65691;SDS011;52411;52.716;6.696;2023-11-22T13:40:22;8.65;;;6.00;;
65691;SDS011;52411;52.716;6.696;2023-11-22T13:42:48;9.75;;;6.05;;
65691;SDS011;52411;52.716;6.696;2023-11-22T13:45:15;10.73;;;6.25;;
65691;SDS011;52411;52.716;6.696;2023-11-22T13:47:45;10.35;;;6.15;;
65691;SDS011;52411;52.716;6.696;2023-11-22T13:50:14;11.52;;;5.88;;
65691;SDS011;52411;52.716;6.696;2023-11-22T13:52:44;9.77;;;5.78;;
65691;SDS011;52411;52.716;6.696;2023-11-22T13:55:15;10.13;;;6.13;;
65691;SDS011;52411;52.716;6.696;2023-11-22T13:57:48;9.70;;;5.57;;
65691;SDS011;52411;52.716;6.696;2023-11-22T14:00:18;10.32;;;5.82;;
65691;SDS011;52411;52.716;6.696;2023-11-22T14:02:45;10.23;;;5.80;;
65691;SDS011;52411;52.716;6.696;2023-11-22T14:05:11;10.88;;;6.43;;
65691;SDS011;52411;52.716;6.696;2023-11-22T14:07:37;13.95;;;7.32;;
65691;SDS011;52411;52.716;6.696;2023-11-22T14:10:03;10.85;;;6.15;;
65691;SDS011;52411;52.716;6.696;2023-11-22T14:12:30;11.27;;;6.60;;
65691;SDS011;52411;52.716;6.696;2023-11-22T14:14:56;10.40;;;6.65;;
65691;SDS011;52411;52.716;6.696;2023-11-22T14:17:23;9.20;;;5.30;;
65691;SDS011;52411;52.716;6.696;2023-11-22T14:19:49;10.45;;;6.60;;
65691;SDS011;52411;52.716;6.696;2023-11-22T14:22:15;10.13;;;5.43;;
65691;SDS011;52411;52.716;6.696;2023-11-22T14:24:42;11.18;;;6.63;;
65691;SDS011;52411;52.716;6.696;2023-11-22T14:27:10;9.38;;;5.95;;
65691;SDS011;52411;52.716;6.696;2023-11-22T14:29:37;9.88;;;5.85;;
65691;SDS011;52411;52.716;6.696;2023-11-22T14:32:03;13.80;;;6.78;;